createdAt,value
2023-03-05T00:01:56.949Z,1.70
2023-03-05T00:04:23.527Z,0.30
2023-03-05T00:06:49.951Z,0.40
2023-03-05T00:09:16.887Z,0.60
2023-03-05T00:11:43.424Z,0.40
2023-03-05T00:14:10.766Z,0.60
2023-03-05T00:16:37.258Z,0.50
2023-03-05T00:19:03.929Z,0.73
2023-03-05T00:21:36.256Z,0.70
2023-03-05T00:24:05.714Z,0.40
2023-03-05T00:26:34.773Z,0.60
2023-03-05T00:29:01.306Z,0.77
2023-03-05T00:31:30.754Z,0.77
2023-03-05T00:34:02.835Z,0.82
2023-03-05T00:36:29.819Z,1.00
2023-03-05T00:38:56.533Z,1.00
2023-03-05T00:41:23.316Z,0.68
2023-03-05T00:43:49.858Z,1.13
2023-03-05T00:46:17.198Z,0.93
2023-03-05T00:48:43.775Z,1.10
2023-03-05T00:51:10.319Z,0.90
2023-03-05T00:53:36.680Z,0.90
2023-03-05T00:56:03.250Z,0.73
2023-03-05T00:58:30.752Z,1.00
2023-03-05T01:00:59.346Z,1.08
2023-03-05T01:03:26.403Z,1.10
2023-03-05T01:05:52.879Z,1.25
2023-03-05T01:08:19.765Z,0.82
2023-03-05T01:10:46.172Z,1.17
2023-03-05T01:13:12.770Z,1.10
2023-03-05T01:15:39.169Z,0.77
2023-03-05T01:18:05.942Z,0.90
2023-03-05T01:20:32.756Z,1.58
2023-03-05T01:22:59.404Z,1.50
2023-03-05T01:25:25.839Z,1.08
2023-03-05T01:27:52.733Z,1.47
2023-03-05T01:30:19.654Z,1.00
2023-03-05T01:32:46.388Z,1.38
2023-03-05T01:35:19.697Z,1.40
2023-03-05T01:37:46.582Z,1.15
2023-03-05T01:40:16.594Z,1.43
2023-03-05T01:42:48.070Z,0.90
2023-03-05T01:45:18.184Z,1.13
2023-03-05T01:47:45.495Z,1.20
2023-03-05T01:50:20.099Z,1.80
2023-03-05T01:52:52.277Z,0.90
2023-03-05T01:55:22.444Z,1.13
2023-03-05T01:58:06.404Z,0.77
2023-03-05T02:00:39.484Z,1.00
2023-03-05T02:03:09.634Z,1.00
2023-03-05T02:05:38.063Z,1.93
2023-03-05T02:08:07.828Z,1.05
2023-03-05T02:10:37.320Z,1.20
2023-03-05T02:13:07.543Z,1.27
2023-03-05T02:15:34.851Z,1.10
2023-03-05T02:18:01.664Z,0.90
2023-03-05T02:20:30.824Z,1.00
2023-03-05T02:22:57.640Z,1.25
2023-03-05T02:25:27.732Z,1.05
2023-03-05T02:28:08.520Z,1.35
2023-03-05T02:30:35.592Z,0.93
2023-03-05T02:33:02.416Z,1.00
2023-03-05T02:35:28.856Z,1.17
2023-03-05T02:37:55.350Z,1.52
2023-03-05T02:40:21.788Z,1.45
2023-03-05T02:42:49.010Z,1.37
2023-03-05T02:45:16.057Z,1.70
2023-03-05T02:47:43.018Z,2.00
2023-03-05T02:50:10.967Z,1.30
2023-03-05T02:52:37.435Z,1.08
2023-03-05T02:55:04.830Z,1.10
2023-03-05T02:57:31.254Z,1.45
2023-03-05T02:59:57.717Z,0.90
2023-03-05T03:02:24.198Z,1.20
2023-03-05T03:04:50.640Z,1.58
2023-03-05T03:07:17.229Z,1.40
2023-03-05T03:09:43.647Z,1.30
2023-03-05T03:12:11.198Z,1.42
2023-03-05T03:14:41.105Z,0.85
2023-03-05T03:17:18.181Z,1.58
2023-03-05T03:19:45.696Z,1.83
2023-03-05T03:22:14.090Z,1.48
2023-03-05T03:24:41.739Z,0.80
2023-03-05T03:27:08.303Z,0.82
2023-03-05T03:29:35.295Z,1.65
2023-03-05T03:32:01.823Z,0.90
2023-03-05T03:34:28.303Z,1.10
2023-03-05T03:36:54.890Z,0.90
2023-03-05T03:39:22.288Z,0.80
2023-03-05T03:41:51.572Z,0.95
2023-03-05T03:44:19.615Z,0.83
2023-03-05T03:46:47.936Z,0.60
2023-03-05T03:49:18.074Z,0.70
2023-03-05T03:51:44.871Z,0.95
2023-03-05T03:54:11.473Z,1.00
2023-03-05T03:56:37.857Z,1.13
2023-03-05T03:59:04.242Z,1.00
2023-03-05T04:01:30.722Z,0.90
2023-03-05T04:03:57.224Z,0.70
2023-03-05T04:06:23.814Z,0.82
2023-03-05T04:08:50.494Z,0.70
2023-03-05T04:11:19.344Z,0.90
2023-03-05T04:13:46.884Z,0.73
2023-03-05T04:16:14.903Z,0.73
2023-03-05T04:18:42.263Z,0.80
2023-03-05T04:21:08.739Z,0.60
2023-03-05T04:23:35.559Z,0.82
2023-03-05T04:26:02.234Z,0.38
2023-03-05T04:28:28.856Z,0.50
2023-03-05T04:30:55.504Z,0.80
2023-03-05T04:33:22.051Z,0.60
2023-03-05T04:35:48.588Z,0.50
2023-03-05T04:38:15.187Z,0.65
2023-03-05T04:40:41.668Z,0.75
2023-03-05T04:43:08.380Z,0.50
2023-03-05T04:45:34.922Z,0.50
2023-03-05T04:48:01.680Z,0.82
2023-03-05T04:50:28.098Z,0.60
2023-03-05T04:52:54.617Z,0.57
2023-03-05T04:55:21.013Z,0.68
2023-03-05T04:57:47.477Z,0.33
2023-03-05T05:00:16.886Z,0.70
2023-03-05T05:02:45.335Z,0.60
2023-03-05T05:05:14.923Z,0.40
2023-03-05T05:07:41.541Z,0.30
2023-03-05T05:10:09.015Z,0.53
2023-03-05T05:12:35.603Z,0.40
2023-03-05T05:15:03.227Z,0.70
2023-03-05T05:17:32.853Z,0.25
2023-03-05T05:20:00.273Z,0.28
2023-03-05T05:22:28.862Z,0.50
2023-03-05T05:24:55.889Z,0.38
2023-03-05T05:27:22.738Z,0.70
2023-03-05T05:29:52.886Z,0.68
2023-03-05T05:32:22.247Z,0.30
2023-03-05T05:34:48.955Z,0.33
2023-03-05T05:37:15.346Z,0.35
2023-03-05T05:39:41.718Z,0.45
2023-03-05T05:42:08.091Z,0.40
2023-03-05T05:44:34.911Z,0.30
2023-03-05T05:47:01.802Z,0.30
2023-03-05T05:49:28.320Z,0.40
2023-03-05T05:51:54.830Z,0.38
2023-03-05T05:54:21.407Z,0.52
2023-03-05T05:56:47.864Z,0.40
2023-03-05T05:59:14.338Z,0.60
2023-03-05T06:01:40.777Z,0.73
2023-03-05T06:04:07.412Z,0.80
2023-03-05T06:06:34.995Z,0.45
2023-03-05T06:09:01.659Z,0.40
2023-03-05T06:11:28.116Z,0.40
2023-03-05T06:13:54.759Z,0.30
2023-03-05T06:16:24.013Z,0.60
2023-03-05T06:18:51.921Z,0.38
2023-03-05T06:21:20.299Z,0.40
2023-03-05T06:23:47.972Z,0.40
2023-03-05T06:26:17.836Z,0.50
2023-03-05T06:28:44.389Z,0.55
2023-03-05T06:31:21.854Z,0.68
2023-03-05T06:33:49.370Z,0.60
2023-03-05T06:36:18.124Z,0.93
2023-03-05T06:38:44.853Z,0.40
2023-03-05T06:41:14.356Z,0.43
2023-03-05T06:43:43.419Z,0.60
2023-03-05T06:46:14.226Z,0.43
2023-03-05T06:48:40.875Z,0.40
2023-03-05T06:51:17.547Z,0.60
2023-03-05T06:53:45.014Z,0.80
2023-03-05T06:56:11.616Z,0.40
2023-03-05T06:58:38.032Z,0.32
2023-03-05T07:01:06.484Z,0.60
2023-03-05T07:03:35.077Z,0.38
2023-03-05T07:06:13.418Z,0.45
2023-03-05T07:08:40.113Z,0.60
2023-03-05T07:11:11.489Z,0.30
2023-03-05T07:13:37.985Z,0.50
2023-03-05T07:16:10.294Z,0.60
2023-03-05T07:18:36.897Z,0.40
2023-03-05T07:21:05.414Z,0.30
2023-03-05T07:23:32.204Z,0.32
2023-03-05T07:26:01.958Z,0.40
2023-03-05T07:28:28.357Z,0.40
2023-03-05T07:30:59.383Z,0.35
2023-03-05T07:33:26.704Z,0.28
2023-03-05T07:35:53.338Z,0.38
2023-03-05T07:38:19.876Z,0.40
2023-03-05T07:40:46.687Z,0.30
2023-03-05T07:43:13.382Z,0.25
2023-03-05T07:45:41.132Z,0.30
2023-03-05T07:48:08.487Z,0.63
2023-03-05T07:50:34.864Z,0.30
2023-03-05T07:53:01.257Z,0.20
2023-03-05T07:55:27.722Z,1.13
2023-03-05T07:57:54.142Z,0.40
2023-03-05T08:00:20.874Z,0.43
2023-03-05T08:02:47.959Z,0.40
2023-03-05T08:05:14.645Z,0.25
2023-03-05T08:07:41.083Z,0.20
2023-03-05T08:10:08.637Z,0.30
2023-03-05T08:12:35.435Z,0.40
2023-03-05T08:15:01.930Z,0.50
2023-03-05T08:17:28.334Z,0.13
2023-03-05T08:19:58.240Z,0.40
2023-03-05T08:22:24.634Z,0.22
2023-03-05T08:24:52.240Z,0.63
2023-03-05T08:27:18.836Z,0.40
2023-03-05T08:29:45.230Z,0.20
2023-03-05T08:32:12.659Z,0.20
2023-03-05T08:34:39.037Z,0.20
2023-03-05T08:37:06.099Z,0.38
2023-03-05T08:39:32.561Z,0.60
2023-03-05T08:41:58.936Z,0.30
2023-03-05T08:44:25.359Z,0.70
2023-03-05T08:46:51.839Z,0.20
2023-03-05T08:49:18.250Z,0.38
2023-03-05T08:51:44.893Z,0.30
2023-03-05T08:54:11.343Z,0.30
2023-03-05T08:56:38.024Z,0.30
2023-03-05T08:59:05.276Z,0.38
2023-03-05T09:01:32.477Z,0.73
2023-03-05T09:03:59.790Z,0.40
2023-03-05T09:06:27.120Z,0.40
2023-03-05T09:08:54.166Z,0.43
2023-03-05T09:11:21.126Z,0.50
2023-03-05T09:13:47.575Z,0.45
2023-03-05T09:16:16.346Z,1.63
2023-03-05T09:18:43.746Z,0.60
2023-03-05T09:21:13.916Z,0.63
2023-03-05T09:23:40.986Z,0.50
2023-03-05T09:26:09.829Z,0.30
2023-03-05T09:28:36.401Z,0.40
2023-03-05T09:31:07.673Z,0.50
2023-03-05T09:33:35.031Z,0.30
2023-03-05T09:36:02.048Z,0.38
2023-03-05T09:38:29.486Z,0.30
2023-03-05T09:41:03.783Z,0.77
2023-03-05T09:43:54.948Z,0.50
2023-03-05T09:46:43.887Z,0.40
2023-03-05T09:49:22.558Z,0.47
2023-03-05T09:51:57.878Z,0.60
2023-03-05T09:54:54.989Z,0.30
2023-03-05T09:57:27.267Z,0.47
2023-03-05T10:00:01.862Z,0.50
2023-03-05T10:02:33.954Z,0.85
2023-03-05T10:05:10.933Z,0.50
2023-03-05T10:07:41.703Z,0.40
2023-03-05T10:10:17.650Z,0.43
2023-03-05T10:12:59.925Z,0.68
2023-03-05T10:15:52.118Z,0.20
2023-03-05T10:18:33.422Z,0.40
2023-03-05T10:21:04.030Z,0.30
2023-03-05T10:23:58.733Z,0.55
2023-03-05T10:26:57.542Z,0.20
2023-03-05T10:29:39.799Z,0.40
2023-03-05T10:32:44.610Z,0.40
2023-03-05T10:35:23.641Z,0.33
2023-03-05T10:38:05.025Z,0.30
2023-03-05T10:40:52.547Z,0.20
2023-03-05T10:43:21.938Z,0.30
2023-03-05T10:45:53.931Z,0.20
2023-03-05T10:48:40.091Z,0.47
2023-03-05T10:51:15.525Z,0.30
2023-03-05T10:54:09.838Z,0.30
2023-03-05T10:56:36.980Z,0.20
2023-03-05T10:59:03.504Z,0.20
2023-03-05T11:01:31.847Z,0.20
2023-03-05T11:04:26.166Z,0.20
2023-03-05T11:06:52.863Z,0.40
2023-03-05T11:09:29.082Z,0.22
2023-03-05T11:12:06.215Z,0.20
2023-03-05T11:14:33.649Z,0.33
2023-03-05T11:17:01.981Z,0.20
2023-03-05T11:19:33.604Z,0.10
2023-03-05T11:22:16.649Z,0.10
2023-03-05T11:24:46.662Z,0.20
2023-03-05T11:27:30.215Z,0.20
2023-03-05T11:29:56.635Z,0.40
2023-03-05T11:32:26.290Z,0.10
2023-03-05T11:34:54.631Z,0.20
2023-03-05T11:37:30.387Z,0.50
2023-03-05T11:40:21.044Z,0.40
2023-03-05T11:42:56.298Z,1.75
2023-03-05T11:45:24.744Z,0.30
2023-03-05T11:47:53.627Z,0.20
2023-03-05T11:50:30.683Z,0.35
2023-03-05T11:53:18.851Z,0.20
2023-03-05T11:55:48.994Z,0.30
2023-03-05T11:58:24.992Z,0.30
2023-03-05T12:00:52.131Z,0.30
2023-03-05T12:03:22.274Z,0.20
2023-03-05T12:05:52.580Z,0.50
2023-03-05T12:08:25.552Z,0.20
2023-03-05T12:10:53.176Z,0.10
2023-03-05T12:13:35.049Z,0.20
2023-03-05T12:16:10.457Z,0.25
2023-03-05T12:18:52.594Z,0.30
2023-03-05T12:21:26.102Z,0.30
2023-03-05T12:23:58.948Z,0.30
2023-03-05T12:26:53.328Z,0.30
2023-03-05T12:29:41.526Z,0.30
2023-03-05T12:32:23.273Z,0.30
2023-03-05T12:34:58.153Z,0.15
2023-03-05T12:37:24.585Z,0.55
2023-03-05T12:40:04.969Z,0.30
2023-03-05T12:42:31.511Z,0.30
2023-03-05T12:45:11.622Z,0.20
2023-03-05T12:48:02.119Z,0.20
2023-03-05T12:50:28.500Z,0.45
2023-03-05T12:52:55.951Z,0.75
2023-03-05T12:55:48.312Z,0.30
2023-03-05T12:58:42.326Z,0.20
2023-03-05T13:01:11.833Z,0.20
2023-03-05T13:03:50.535Z,0.20
2023-03-05T13:06:34.129Z,0.30
2023-03-05T13:09:18.750Z,0.40
2023-03-05T13:11:49.929Z,0.20
2023-03-05T13:14:32.436Z,0.20
2023-03-05T13:17:00.038Z,0.20
2023-03-05T13:19:27.045Z,0.20
2023-03-05T13:22:09.418Z,0.10
2023-03-05T13:24:35.843Z,0.20
2023-03-05T13:27:02.343Z,0.32
2023-03-05T13:29:30.649Z,0.45
2023-03-05T13:32:04.308Z,0.68
2023-03-05T13:34:46.260Z,0.40
2023-03-05T13:37:38.095Z,0.20
2023-03-05T13:40:25.151Z,0.30
2023-03-05T13:42:53.339Z,0.30
2023-03-05T13:45:27.017Z,0.30
2023-03-05T13:47:57.304Z,0.25
2023-03-05T13:50:27.730Z,0.30
2023-03-05T13:52:54.632Z,0.20
2023-03-05T13:55:21.326Z,0.40
2023-03-05T13:57:55.786Z,0.40
2023-03-05T14:00:38.968Z,0.40
2023-03-05T14:03:22.188Z,0.40
2023-03-05T14:05:50.023Z,0.30
2023-03-05T14:08:34.612Z,0.50
2023-03-05T14:11:13.482Z,0.50
2023-03-05T14:13:40.151Z,0.60
2023-03-05T14:16:07.637Z,1.27
2023-03-05T14:18:35.048Z,0.43
2023-03-05T14:21:09.359Z,0.30
2023-03-05T14:23:46.152Z,0.47
2023-03-05T14:26:26.431Z,0.25
2023-03-05T14:29:17.544Z,0.20
2023-03-05T14:31:54.548Z,0.20
2023-03-05T14:34:27.175Z,0.30
2023-03-05T14:36:55.406Z,0.30
2023-03-05T14:39:31.336Z,0.20
2023-03-05T14:42:25.510Z,0.20
2023-03-05T14:44:51.888Z,0.30
2023-03-05T14:47:18.380Z,0.20
2023-03-05T14:49:44.737Z,0.50
2023-03-05T14:52:19.665Z,0.50
2023-03-05T14:54:46.249Z,0.53
2023-03-05T14:57:18.576Z,0.70
2023-03-05T14:59:45.227Z,0.90
2023-03-05T15:02:21.798Z,1.30
2023-03-05T15:04:48.420Z,1.10
2023-03-05T15:07:32.881Z,1.33
2023-03-05T15:10:02.038Z,1.10
2023-03-05T15:12:28.614Z,0.68
2023-03-05T15:14:56.389Z,0.50
2023-03-05T15:17:30.406Z,0.40
2023-03-05T15:19:56.821Z,0.40
2023-03-05T15:22:23.208Z,0.60
2023-03-05T15:24:49.577Z,0.40
2023-03-05T15:27:16.019Z,0.40
2023-03-05T15:29:42.457Z,0.40
2023-03-05T15:32:09.420Z,0.60
2023-03-05T15:34:36.071Z,0.40
2023-03-05T15:37:03.491Z,0.30
2023-03-05T15:39:29.995Z,0.65
2023-03-05T15:41:57.236Z,0.40
2023-03-05T15:44:23.702Z,0.40
2023-03-05T15:46:50.100Z,0.38
2023-03-05T15:49:16.779Z,0.38
2023-03-05T15:51:43.360Z,0.55
2023-03-05T15:54:09.808Z,0.57
2023-03-05T15:56:36.314Z,0.50
2023-03-05T15:59:02.848Z,0.50
2023-03-05T16:01:29.287Z,0.28
2023-03-05T16:03:55.736Z,0.30
2023-03-05T16:06:23.885Z,0.38
2023-03-05T16:08:54.388Z,0.30
2023-03-05T16:11:21.774Z,0.50
2023-03-05T16:13:50.403Z,0.45
2023-03-05T16:16:17.798Z,0.60
2023-03-05T16:18:47.390Z,0.30
2023-03-05T16:21:14.450Z,0.50
2023-03-05T16:23:40.819Z,0.57
2023-03-05T16:26:08.976Z,0.38
2023-03-05T16:28:35.374Z,0.50
2023-03-05T16:31:02.321Z,0.45
2023-03-05T16:33:28.778Z,0.50
2023-03-05T16:36:20.179Z,0.50
2023-03-05T16:38:49.185Z,0.60
2023-03-05T16:41:16.778Z,0.60
2023-03-05T16:43:44.561Z,0.57
2023-03-05T16:46:12.420Z,0.60
2023-03-05T16:48:39.131Z,0.60
2023-03-05T16:51:06.951Z,0.50
2023-03-05T16:53:33.493Z,0.50
2023-03-05T16:56:04.016Z,0.30
2023-03-05T16:58:31.590Z,0.43
2023-03-05T17:00:58.085Z,0.35
2023-03-05T17:03:24.671Z,0.10
2023-03-05T17:05:51.216Z,0.10
2023-03-05T17:08:17.864Z,0.20
2023-03-05T17:10:44.452Z,0.20
2023-03-05T17:13:10.933Z,0.20
2023-03-05T17:15:37.403Z,0.20
2023-03-05T17:18:04.070Z,0.40
2023-03-05T17:20:30.457Z,0.20
2023-03-05T17:22:56.904Z,0.30
2023-03-05T17:25:23.328Z,0.50
2023-03-05T17:27:49.706Z,0.20
2023-03-05T17:30:16.414Z,0.20
2023-03-05T17:32:42.943Z,0.20
2023-03-05T17:35:17.859Z,0.20
2023-03-05T17:37:44.282Z,0.20
2023-03-05T17:40:13.549Z,0.20
2023-03-05T17:42:39.951Z,0.20
2023-03-05T17:45:07.064Z,0.38
2023-03-05T17:47:36.462Z,0.30
2023-03-05T17:50:04.073Z,1.05
2023-03-05T17:52:31.154Z,0.30
2023-03-05T17:54:58.422Z,0.20
2023-03-05T17:57:26.095Z,0.40
2023-03-05T17:59:52.762Z,0.30
2023-03-05T18:02:19.154Z,0.20
2023-03-05T18:04:47.844Z,0.20
2023-03-05T18:07:14.483Z,0.40
2023-03-05T18:09:40.863Z,0.10
2023-03-05T18:12:07.296Z,0.10
2023-03-05T18:14:33.758Z,0.20
2023-03-05T18:17:00.326Z,0.25
2023-03-05T18:19:26.834Z,0.20
2023-03-05T18:21:53.320Z,0.20
2023-03-05T18:24:19.768Z,0.40
2023-03-05T18:26:46.462Z,0.22
2023-03-05T18:29:13.090Z,0.30
2023-03-05T18:31:39.478Z,0.22
2023-03-05T18:34:05.880Z,0.20
2023-03-05T18:36:32.871Z,0.20
2023-03-05T18:38:59.292Z,0.50
2023-03-05T18:41:27.949Z,0.20
2023-03-05T18:43:54.889Z,0.85
2023-03-05T18:46:21.394Z,0.38
2023-03-05T18:48:48.176Z,0.30
2023-03-05T18:51:17.516Z,0.40
2023-03-05T18:53:44.284Z,0.50
2023-03-05T18:56:10.869Z,0.20
2023-03-05T18:58:37.811Z,0.57
2023-03-05T19:01:04.864Z,0.40
2023-03-05T19:03:31.345Z,0.40
2023-03-05T19:05:57.748Z,0.65
2023-03-05T19:08:24.296Z,0.50
2023-03-05T19:10:53.716Z,0.50
2023-03-05T19:13:35.846Z,0.30
2023-03-05T19:16:26.517Z,0.30
2023-03-05T19:19:19.986Z,0.30
2023-03-05T19:21:49.435Z,0.25
2023-03-05T19:24:16.837Z,0.30
2023-03-05T19:26:43.779Z,0.20
2023-03-05T19:29:10.304Z,0.20
2023-03-05T19:31:37.328Z,0.30
2023-03-05T19:34:04.199Z,0.60
2023-03-05T19:36:32.317Z,0.55
2023-03-05T19:38:58.830Z,0.40
2023-03-05T19:41:26.190Z,0.40
2023-03-05T19:43:52.777Z,0.35
2023-03-05T19:46:19.684Z,0.43
2023-03-05T19:48:46.518Z,0.30
2023-03-05T19:51:16.981Z,0.50
2023-03-05T19:53:43.729Z,0.52
2023-03-05T19:56:10.773Z,0.60
2023-03-05T19:58:37.648Z,0.40
2023-03-05T20:01:26.768Z,0.43
2023-03-05T20:03:55.538Z,0.47
2023-03-05T20:06:22.513Z,0.40
2023-03-05T20:08:51.589Z,0.47
2023-03-05T20:11:19.072Z,0.68
2023-03-05T20:13:46.022Z,0.50
2023-03-05T20:16:15.653Z,0.50
2023-03-05T20:18:42.419Z,0.50
2023-03-05T20:21:08.883Z,0.60
2023-03-05T20:23:35.400Z,0.60
2023-03-05T20:26:04.590Z,0.60
2023-03-05T20:28:31.416Z,0.60
2023-03-05T20:31:00.385Z,0.60
2023-03-05T20:33:28.382Z,0.93
2023-03-05T20:35:56.315Z,0.65
2023-03-05T20:38:29.403Z,1.00
2023-03-05T20:41:07.812Z,0.70
2023-03-05T20:43:37.476Z,0.60
2023-03-05T20:46:04.842Z,1.00
2023-03-05T20:48:33.443Z,0.68
2023-03-05T20:51:11.248Z,0.88
2023-03-05T20:53:37.713Z,0.60
2023-03-05T20:56:04.323Z,0.70
2023-03-05T20:58:30.760Z,0.90
2023-03-05T21:00:57.230Z,0.80
2023-03-05T21:03:25.569Z,0.60
2023-03-05T21:05:55.752Z,0.73
2023-03-05T21:08:22.344Z,1.10
2023-03-05T21:10:48.889Z,1.10
2023-03-05T21:13:15.321Z,1.30
2023-03-05T21:15:41.857Z,1.23
2023-03-05T21:18:08.243Z,0.90
2023-03-05T21:20:34.628Z,1.05
2023-03-05T21:23:01.061Z,1.10
2023-03-05T21:25:29.669Z,1.08
2023-03-05T21:28:06.855Z,0.60
2023-03-05T21:30:39.835Z,1.03
2023-03-05T21:33:09.903Z,0.70
2023-03-05T21:35:37.421Z,0.60
2023-03-05T21:38:05.258Z,0.70
2023-03-05T21:40:33.040Z,0.60
2023-03-05T21:42:59.691Z,0.63
2023-03-05T21:45:28.050Z,0.70
2023-03-05T21:47:55.979Z,0.57
2023-03-05T21:50:24.562Z,0.70
2023-03-05T21:52:51.609Z,0.47
2023-03-05T21:55:22.590Z,0.73
2023-03-05T21:57:48.963Z,0.68
2023-03-05T22:00:18.075Z,0.70
2023-03-05T22:02:45.789Z,0.57
2023-03-05T22:05:13.522Z,0.73
2023-03-05T22:07:40.351Z,0.70
2023-03-05T22:10:07.536Z,0.60
2023-03-05T22:13:00.041Z,0.45
2023-03-05T22:15:26.638Z,0.55
2023-03-05T22:17:53.233Z,0.70
2023-03-05T22:20:19.817Z,0.53
2023-03-05T22:22:46.210Z,0.55
2023-03-05T22:25:15.044Z,0.90
2023-03-05T22:27:42.384Z,0.70
2023-03-05T22:30:11.027Z,0.60
2023-03-05T22:32:38.149Z,0.57
2023-03-05T22:35:06.442Z,0.50
2023-03-05T22:37:33.111Z,0.70
2023-03-05T22:39:59.665Z,0.85
2023-03-05T22:42:26.134Z,0.80
2023-03-05T22:44:58.834Z,1.03
2023-03-05T22:47:26.975Z,0.80
2023-03-05T22:49:54.933Z,0.73
2023-03-05T22:52:21.345Z,0.90
2023-03-05T22:54:47.785Z,0.90
2023-03-05T22:57:14.311Z,0.77
2023-03-05T22:59:40.706Z,0.60
2023-03-05T23:02:07.237Z,0.60
2023-03-05T23:04:51.526Z,0.68
2023-03-05T23:07:23.938Z,0.90
2023-03-05T23:09:52.680Z,0.57
2023-03-05T23:12:19.262Z,0.70
2023-03-05T23:14:45.760Z,0.70
2023-03-05T23:17:12.472Z,0.70
2023-03-05T23:19:39.950Z,0.50
2023-03-05T23:22:08.103Z,0.70
2023-03-05T23:24:34.741Z,0.70
2023-03-05T23:27:05.158Z,0.80
2023-03-05T23:29:38.422Z,0.80
2023-03-05T23:32:05.327Z,0.73
2023-03-05T23:34:31.750Z,0.80
2023-03-05T23:37:00.465Z,0.85
2023-03-05T23:39:26.920Z,0.70
2023-03-05T23:41:53.318Z,0.75
2023-03-05T23:44:19.739Z,0.80
2023-03-05T23:46:46.169Z,0.60
2023-03-05T23:49:12.615Z,0.60
2023-03-05T23:51:39.038Z,0.60
2023-03-05T23:54:05.747Z,0.80
2023-03-05T23:56:32.405Z,0.95
2023-03-05T23:59:00.598Z,0.70
